Terminal Aerodrome Forecast
Issued by NWS Sioux Falls, SD

Home | Current Version | Previous Version | Text Only | Print | Product List | Glossary On
Versions: 1 2 3 4 5 6 7 8 9 10 11 12 13
232
FTUS43 KFSD 202320
TAFHON
TAF
KHON 202320Z 2100/2124 36007KT P6SM BKN040
     FM210200 VRB03KT P6SM SKC
     FM211000 VRB03KT 4SM BR SKC
     FM211400 09006KT P6SM FEW050=

USA.gov is the U.S. government's official web portal to all federal, state and local government web resources and services.